Time;durP1;ratioP1;P1;durP2;ratioP2;P2;SDS_P1;SDS_P2;PMS_P1;PMS_P2;Temp;Humidity;BMP_temperature;BMP_pressure;BME280_temperature;BME280_humidity;BME280_pressure;Samples;Min_cycle;Max_cycle;Signal;HPM_P1;HPM_P2
2022/10/01 00:00:25;;;;;;;8.07;4.30;;;;;;;;;;2346526;57;21050;-75
2022/10/01 00:02:53;;;;;;;5.87;4.30;;;;;;;;;;2344297;57;21102;-75
2022/10/01 00:05:20;;;;;;;5.62;4.07;;;;;;;;;;2346541;57;21113;-75
2022/10/01 00:07:47;;;;;;;6.60;3.45;;;;;;;;;;2346556;57;21093;-75
2022/10/01 00:10:15;;;;;;;5.80;4.05;;;;;;;;;;2346011;57;21040;-75
2022/10/01 00:12:45;;;;;;;6.28;3.78;;;;;;;;;;2344441;57;21057;-75
2022/10/01 00:15:13;;;;;;;5.82;3.75;;;;;;;;;;2346151;57;21025;-75
2022/10/01 00:17:40;;;;;;;6.10;3.92;;;;;;;;;;2346109;57;21544;-76
2022/10/01 00:20:07;;;;;;;4.93;4.10;;;;;;;;;;2346390;57;21022;-76
2022/10/01 00:22:35;;;;;;;5.55;3.97;;;;;;;;;;2586560;52;21021;-75
2022/10/01 00:25:03;;;;;;;5.85;3.75;;;;;;;;;;2295814;58;21050;-76
2022/10/01 00:27:30;;;;;;;5.72;3.70;;;;;;;;;;2296310;58;21624;-74
2022/10/01 00:29:57;;;;;;;5.28;3.42;;;;;;;;;;2295799;58;21128;-76
2022/10/01 00:32:24;;;;;;;4.47;3.47;;;;;;;;;;2295624;58;21083;-74
2022/10/01 00:34:52;;;;;;;4.87;3.33;;;;;;;;;;2296236;58;21115;-75
2022/10/01 00:37:21;;;;;;;6.72;3.92;;;;;;;;;;2296529;58;21066;-76
2022/10/01 00:39:48;;;;;;;4.50;4.05;;;;;;;;;;2296165;58;21058;-75
2022/10/01 00:42:19;;;;;;;7.05;4.30;;;;;;;;;;2296335;58;22184;-74
2022/10/01 00:47:25;;;;;;;8.38;4.18;;;;;;;;;;2336142;57;27820;-74
2022/10/01 00:49:54;;;;;;;6.32;3.80;;;;;;;;;;2347410;57;21536;-74
2022/10/01 00:52:22;;;;;;;6.00;3.70;;;;;;;;;;2347215;57;21132;-75
2022/10/01 00:54:51;;;;;;;5.72;3.67;;;;;;;;;;2365426;56;21612;-74
2022/10/01 00:57:20;;;;;;;10.85;4.35;;;;;;;;;;2375093;56;21035;-74
2022/10/01 00:59:48;;;;;;;8.00;4.12;;;;;;;;;;2374549;56;21035;-74
2022/10/01 01:02:15;;;;;;;5.45;4.37;;;;;;;;;;2374127;56;21127;-78
2022/10/01 01:04:43;;;;;;;6.87;4.25;;;;;;;;;;2375229;56;21054;-74
2022/10/01 01:07:11;;;;;;;8.20;3.65;;;;;;;;;;2374778;56;21091;-74
2022/10/01 01:09:41;;;;;;;5.87;3.37;;;;;;;;;;2374640;56;21095;-75
2022/10/01 01:12:13;;;;;;;6.68;3.75;;;;;;;;;;2628202;52;21039;-76
2022/10/01 01:14:44;;;;;;;5.68;3.92;;;;;;;;;;2375172;56;21114;-77
2022/10/01 01:17:14;;;;;;;3.95;3.37;;;;;;;;;;2375419;56;21569;-77
2022/10/01 01:19:50;;;;;;;5.90;3.60;;;;;;;;;;2374294;56;21055;-76
2022/10/01 01:22:19;;;;;;;5.40;3.53;;;;;;;;;;2374601;56;21031;-77
2022/10/01 01:24:48;;;;;;;5.45;3.80;;;;;;;;;;2374979;56;21039;-79
2022/10/01 01:30:03;;;;;;;7.03;4.15;;;;;;;;;;2281610;58;28395;-74
2022/10/01 01:32:34;;;;;;;10.63;3.70;;;;;;;;;;2318469;58;21111;-75
2022/10/01 01:35:03;;;;;;;5.00;3.75;;;;;;;;;;2339085;57;21524;-74
2022/10/01 01:37:33;;;;;;;6.50;3.53;;;;;;;;;;2346132;57;21101;-74
2022/10/01 01:40:02;;;;;;;7.03;3.83;;;;;;;;;;2593705;53;21029;-75
2022/10/01 01:42:31;;;;;;;4.87;4.00;;;;;;;;;;2346594;57;21532;-76
2022/10/01 01:44:59;;;;;;;6.53;3.80;;;;;;;;;;2345709;57;21509;-74
2022/10/01 01:47:28;;;;;;;5.95;4.30;;;;;;;;;;2346547;57;21038;-75
2022/10/01 01:49:57;;;;;;;8.15;3.53;;;;;;;;;;2345325;57;21220;-74
2022/10/01 01:52:24;;;;;;;4.43;3.72;;;;;;;;;;2346095;57;21058;-75
2022/10/01 01:54:51;;;;;;;4.90;3.72;;;;;;;;;;2346546;57;21117;-74
2022/10/01 01:57:19;;;;;;;6.05;3.65;;;;;;;;;;2346509;57;21149;-76
2022/10/01 01:59:46;;;;;;;5.50;3.75;;;;;;;;;;2345447;57;21615;-78
2022/10/01 02:02:15;;;;;;;9.52;4.22;;;;;;;;;;2345678;57;21029;-75
2022/10/01 02:04:43;;;;;;;5.97;4.20;;;;;;;;;;2346329;57;21124;-74
2022/10/01 02:07:26;;;;;;;6.35;3.90;;;;;;;;;;2346672;57;21046;-78
2022/10/01 02:10:00;;;;;;;6.20;3.43;;;;;;;;;;2593146;53;21108;-75
2022/10/01 02:12:31;;;;;;;4.20;3.50;;;;;;;;;;2346195;57;21528;-75
2022/10/01 02:15:02;;;;;;;5.70;3.55;;;;;;;;;;2346541;57;21018;-74
2022/10/01 02:17:31;;;;;;;6.85;3.70;;;;;;;;;;2346068;57;21041;-78
2022/10/01 02:20:02;;;;;;;5.00;3.70;;;;;;;;;;2346201;57;21554;-75
2022/10/01 02:22:36;;;;;;;6.43;3.60;;;;;;;;;;2345716;57;21515;-74
2022/10/01 02:25:04;;;;;;;5.90;3.47;;;;;;;;;;2346506;57;21120;-75
2022/10/01 02:27:35;;;;;;;6.03;3.37;;;;;;;;;;2346889;57;21041;-75
2022/10/01 02:30:06;;;;;;;5.22;3.83;;;;;;;;;;2345885;57;21042;-75
2022/10/01 02:32:34;;;;;;;5.07;3.40;;;;;;;;;;2345559;57;21615;-75
2022/10/01 02:35:02;;;;;;;4.28;3.12;;;;;;;;;;2345593;57;21094;-75
2022/10/01 02:37:29;;;;;;;5.18;4.25;;;;;;;;;;2346656;57;21053;-75
2022/10/01 02:39:57;;;;;;;7.62;4.03;;;;;;;;;;2345546;57;21121;-74
2022/10/01 02:42:26;;;;;;;5.75;3.70;;;;;;;;;;2345370;57;21038;-75
2022/10/01 02:44:53;;;;;;;5.12;3.62;;;;;;;;;;2345520;57;21710;-78
2022/10/01 02:47:23;;;;;;;3.45;3.15;;;;;;;;;;2346098;57;21046;-74
2022/10/01 02:49:51;;;;;;;6.00;3.45;;;;;;;;;;2345191;57;21127;-74
2022/10/01 02:52:22;;;;;;;5.87;3.30;;;;;;;;;;2344574;57;21054;-75
2022/10/01 02:54:50;;;;;;;4.87;3.28;;;;;;;;;;2345347;57;21718;-74
2022/10/01 02:57:26;;;;;;;8.93;3.30;;;;;;;;;;2344719;57;21034;-75
2022/10/01 02:59:53;;;;;;;4.72;3.25;;;;;;;;;;2345194;57;21030;-74
2022/10/01 03:02:21;;;;;;;4.45;3.37;;;;;;;;;;2344688;57;21053;-77
2022/10/01 03:04:48;;;;;;;4.28;3.17;;;;;;;;;;2343387;57;21145;-78
2022/10/01 03:07:15;;;;;;;6.47;3.33;;;;;;;;;;2344734;57;21124;-78
2022/10/01 03:09:42;;;;;;;4.35;3.00;;;;;;;;;;2344916;57;21066;-77
2022/10/01 03:12:09;;;;;;;5.22;3.30;;;;;;;;;;2345098;57;21058;-74
2022/10/01 03:14:38;;;;;;;9.05;3.20;;;;;;;;;;2345102;57;21129;-74
2022/10/01 03:17:05;;;;;;;4.85;3.35;;;;;;;;;;2345407;57;21045;-74
2022/10/01 03:19:32;;;;;;;4.00;3.22;;;;;;;;;;2345200;57;21041;-74
2022/10/01 03:21:59;;;;;;;5.47;3.42;;;;;;;;;;2344621;57;21041;-77
2022/10/01 03:24:26;;;;;;;3.67;3.05;;;;;;;;;;2592520;53;21037;-75
2022/10/01 03:26:53;;;;;;;3.70;2.75;;;;;;;;;;2345051;57;21146;-75
2022/10/01 03:29:20;;;;;;;3.90;3.00;;;;;;;;;;2344755;57;21125;-78
2022/10/01 03:31:47;;;;;;;4.78;2.90;;;;;;;;;;2344184;57;21069;-75
2022/10/01 03:34:14;;;;;;;3.75;2.90;;;;;;;;;;2344617;57;21537;-76
2022/10/01 03:36:41;;;;;;;5.72;3.40;;;;;;;;;;2345242;57;21050;-74
2022/10/01 03:39:08;;;;;;;4.40;3.25;;;;;;;;;;2345400;57;21053;-75
2022/10/01 03:41:35;;;;;;;5.12;2.75;;;;;;;;;;2344976;57;21058;-74
2022/10/01 03:44:02;;;;;;;4.37;2.80;;;;;;;;;;2344394;57;21117;-77
2022/10/01 03:46:29;;;;;;;5.22;3.00;;;;;;;;;;2590555;53;21029;-75
2022/10/01 03:48:59;;;;;;;3.25;2.87;;;;;;;;;;2344824;57;21133;-74
2022/10/01 03:51:27;;;;;;;5.03;3.10;;;;;;;;;;2344966;57;21097;-74
2022/10/01 03:53:54;;;;;;;3.58;2.62;;;;;;;;;;2345656;57;21552;-74
2022/10/01 03:56:21;;;;;;;3.30;2.55;;;;;;;;;;2591626;53;21033;-74
2022/10/01 03:58:48;;;;;;;4.68;2.65;;;;;;;;;;2345315;57;21718;-75
2022/10/01 04:01:15;;;;;;;3.67;2.67;;;;;;;;;;2345054;57;21113;-74
2022/10/01 04:03:42;;;;;;;6.05;2.97;;;;;;;;;;2345252;57;21137;-75
2022/10/01 04:06:09;;;;;;;8.30;3.03;;;;;;;;;;2344779;57;21069;-74
2022/10/01 04:08:37;;;;;;;6.30;2.95;;;;;;;;;;2343588;57;21149;-75
2022/10/01 04:11:04;;;;;;;4.53;3.17;;;;;;;;;;2345092;57;21045;-74
2022/10/01 04:13:31;;;;;;;7.07;3.50;;;;;;;;;;2345853;57;21034;-74
2022/10/01 04:15:58;;;;;;;4.28;3.08;;;;;;;;;;2344866;57;21069;-77
2022/10/01 04:18:25;;;;;;;3.65;3.05;;;;;;;;;;2344018;57;21128;-74
2022/10/01 04:20:52;;;;;;;3.28;2.92;;;;;;;;;;2344895;57;21116;-78
2022/10/01 04:23:21;;;;;;;4.70;3.15;;;;;;;;;;2344484;57;21128;-74
2022/10/01 04:25:48;;;;;;;7.55;3.10;;;;;;;;;;2345305;57;21168;-73
2022/10/01 04:28:15;;;;;;;6.30;3.08;;;;;;;;;;2345039;57;21132;-74
2022/10/01 04:30:43;;;;;;;3.78;3.08;;;;;;;;;;2344791;57;21062;-75
2022/10/01 04:33:11;;;;;;;4.28;3.40;;;;;;;;;;2345265;57;21026;-75
2022/10/01 04:35:38;;;;;;;5.10;3.37;;;;;;;;;;2344695;57;21041;-74
2022/10/01 04:38:06;;;;;;;5.70;3.05;;;;;;;;;;2345251;57;21417;-74
2022/10/01 04:40:34;;;;;;;8.18;3.12;;;;;;;;;;2343828;57;21046;-78
2022/10/01 04:43:02;;;;;;;6.68;3.25;;;;;;;;;;2344758;57;21049;-75
2022/10/01 04:45:29;;;;;;;6.68;3.22;;;;;;;;;;2345143;57;21045;-75
2022/10/01 04:47:57;;;;;;;4.62;3.40;;;;;;;;;;2590785;53;21121;-76
2022/10/01 04:50:25;;;;;;;5.95;3.37;;;;;;;;;;2344722;57;21117;-75
2022/10/01 04:52:52;;;;;;;4.75;3.40;;;;;;;;;;2345015;57;21045;-75
2022/10/01 04:55:20;;;;;;;4.75;3.50;;;;;;;;;;2591234;53;21129;-75
2022/10/01 04:57:47;;;;;;;6.25;4.22;;;;;;;;;;2345468;57;21591;-78
2022/10/01 05:00:15;;;;;;;5.65;3.45;;;;;;;;;;2345323;57;21034;-75
2022/10/01 05:02:44;;;;;;;9.48;2.97;;;;;;;;;;2345148;57;21057;-75
2022/10/01 05:05:11;;;;;;;7.30;4.00;;;;;;;;;;2344402;57;21061;-75
2022/10/01 05:07:39;;;;;;;10.18;4.07;;;;;;;;;;2590473;53;21053;-75
2022/10/01 05:10:07;;;;;;;7.72;3.33;;;;;;;;;;2343336;57;21648;-77
2022/10/01 05:12:34;;;;;;;6.18;4.40;;;;;;;;;;2344449;57;21057;-75
2022/10/01 05:15:02;;;;;;;11.75;4.28;;;;;;;;;;2591639;53;21026;-75
2022/10/01 05:17:32;;;;;;;6.47;3.85;;;;;;;;;;2344940;57;21054;-75
2022/10/01 05:20:00;;;;;;;5.07;4.28;;;;;;;;;;2345263;57;21066;-77
2022/10/01 05:22:27;;;;;;;4.53;3.87;;;;;;;;;;2345389;57;21061;-78
2022/10/01 05:24:54;;;;;;;5.45;3.60;;;;;;;;;;2345147;57;21128;-75
2022/10/01 05:27:21;;;;;;;7.45;4.53;;;;;;;;;;2345551;57;21053;-76
2022/10/01 05:29:48;;;;;;;7.80;4.55;;;;;;;;;;2585449;53;21050;-75
2022/10/01 05:32:15;;;;;;;6.05;4.07;;;;;;;;;;2326233;58;21614;-79
2022/10/01 05:34:42;;;;;;;4.80;3.58;;;;;;;;;;2326283;58;21109;-76
2022/10/01 05:37:09;;;;;;;6.85;4.68;;;;;;;;;;2324287;58;21328;-78
2022/10/01 05:39:36;;;;;;;5.87;3.97;;;;;;;;;;2325638;58;21608;-75
2022/10/01 05:42:04;;;;;;;6.75;4.00;;;;;;;;;;2324233;58;21133;-77
2022/10/01 05:44:34;;;;;;;4.68;3.30;;;;;;;;;;2569223;54;21148;-76
2022/10/01 05:47:02;;;;;;;5.80;4.12;;;;;;;;;;2327190;58;21129;-75
2022/10/01 05:49:29;;;;;;;5.95;3.75;;;;;;;;;;2327176;58;21058;-75
2022/10/01 05:51:59;;;;;;;5.25;3.92;;;;;;;;;;2324741;58;21062;-78
2022/10/01 05:54:28;;;;;;;6.05;3.80;;;;;;;;;;2326048;58;21053;-79
2022/10/01 05:56:55;;;;;;;5.50;3.78;;;;;;;;;;2324676;58;21061;-75
2022/10/01 05:59:22;;;;;;;4.85;3.58;;;;;;;;;;2568884;53;21023;-76
2022/10/01 06:01:49;;;;;;;7.40;4.55;;;;;;;;;;2325739;58;21124;-75
2022/10/01 06:04:16;;;;;;;7.12;4.15;;;;;;;;;;2568519;54;21045;-75
2022/10/01 06:06:43;;;;;;;7.68;4.12;;;;;;;;;;2325804;58;21117;-76
2022/10/01 06:09:11;;;;;;;6.85;4.40;;;;;;;;;;2324259;58;21148;-76
2022/10/01 06:11:38;;;;;;;5.53;4.28;;;;;;;;;;2324125;58;21058;-76
2022/10/01 06:14:06;;;;;;;6.45;4.12;;;;;;;;;;2325663;58;21090;-77
2022/10/01 06:16:33;;;;;;;7.00;4.32;;;;;;;;;;2325622;58;21121;-75
2022/10/01 06:19:00;;;;;;;4.65;3.78;;;;;;;;;;2325187;58;21062;-77
2022/10/01 06:21:27;;;;;;;5.15;4.25;;;;;;;;;;2566478;54;21133;-74
2022/10/01 06:23:54;;;;;;;8.38;4.22;;;;;;;;;;2324878;58;21042;-75
2022/10/01 06:26:21;;;;;;;13.10;4.40;;;;;;;;;;2325392;58;21093;-76
2022/10/01 06:28:49;;;;;;;7.50;4.07;;;;;;;;;;2325383;58;21050;-79
2022/10/01 06:31:16;;;;;;;5.32;4.05;;;;;;;;;;2324364;58;21654;-76
2022/10/01 06:33:43;;;;;;;7.75;4.18;;;;;;;;;;2325030;58;21616;-77
2022/10/01 06:36:10;;;;;;;9.07;4.53;;;;;;;;;;2323932;58;21172;-75
2022/10/01 06:38:37;;;;;;;6.35;4.12;;;;;;;;;;2568264;54;21157;-76
2022/10/01 06:41:05;;;;;;;6.05;3.92;;;;;;;;;;2324905;58;21128;-76
2022/10/01 06:43:32;;;;;;;6.37;4.78;;;;;;;;;;2568248;53;21031;-75
2022/10/01 06:46:01;;;;;;;6.25;4.30;;;;;;;;;;2324633;58;21121;-79
2022/10/01 06:48:29;;;;;;;5.75;4.43;;;;;;;;;;2324507;58;21053;-77
2022/10/01 06:50:57;;;;;;;7.03;4.28;;;;;;;;;;2567185;53;21121;-79
2022/10/01 06:53:24;;;;;;;7.68;4.60;;;;;;;;;;2323450;58;21113;-77
2022/10/01 06:55:51;;;;;;;8.43;4.72;;;;;;;;;;2325121;58;21568;-76
2022/10/01 06:58:19;;;;;;;5.30;4.55;;;;;;;;;;2323883;58;21602;-78
2022/10/01 07:00:47;;;;;;;5.12;3.78;;;;;;;;;;2566029;54;21069;-76
2022/10/01 07:03:16;;;;;;;7.07;4.53;;;;;;;;;;2325246;58;21536;-78
2022/10/01 07:05:43;;;;;;;6.97;4.47;;;;;;;;;;2326195;58;21675;-78
2022/10/01 07:08:10;;;;;;;6.57;4.00;;;;;;;;;;2567167;53;21108;-77
2022/10/01 07:10:37;;;;;;;5.78;4.05;;;;;;;;;;2568267;54;21062;-78
2022/10/01 07:13:08;;;;;;;8.00;4.25;;;;;;;;;;2326091;58;21038;-78
2022/10/01 07:15:35;;;;;;;5.25;4.32;;;;;;;;;;2326304;58;21125;-77
2022/10/01 07:18:02;;;;;;;5.82;4.10;;;;;;;;;;2325696;58;21129;-77
2022/10/01 07:20:33;;;;;;;7.35;4.07;;;;;;;;;;2326238;58;21066;-75
2022/10/01 07:23:00;;;;;;;7.55;4.70;;;;;;;;;;2567086;53;21066;-76
2022/10/01 07:25:27;;;;;;;5.85;4.07;;;;;;;;;;2324889;58;21568;-74
2022/10/01 07:27:56;;;;;;;6.12;3.62;;;;;;;;;;2325947;58;21049;-76
2022/10/01 07:30:23;;;;;;;5.32;3.62;;;;;;;;;;2324907;58;21046;-75
2022/10/01 07:32:50;;;;;;;5.60;4.20;;;;;;;;;;2326052;58;21612;-79
2022/10/01 07:35:18;;;;;;;6.90;4.62;;;;;;;;;;2325823;58;21030;-76
2022/10/01 07:37:45;;;;;;;8.55;5.25;;;;;;;;;;2569416;54;21122;-75
2022/10/01 07:40:15;;;;;;;4.80;3.60;;;;;;;;;;2325961;58;21648;-77
2022/10/01 07:42:42;;;;;;;7.25;4.47;;;;;;;;;;2325553;58;21129;-75
2022/10/01 07:45:10;;;;;;;9.38;4.45;;;;;;;;;;2567167;53;21070;-77
2022/10/01 07:47:37;;;;;;;6.68;3.92;;;;;;;;;;2569890;54;21058;-76
2022/10/01 07:50:06;;;;;;;8.00;4.75;;;;;;;;;;2326600;58;21046;-75
2022/10/01 07:52:33;;;;;;;7.07;4.00;;;;;;;;;;2569200;53;21122;-75
2022/10/01 07:55:00;;;;;;;6.30;4.25;;;;;;;;;;2326743;58;21635;-75
2022/10/01 07:57:27;;;;;;;4.45;3.50;;;;;;;;;;2327392;58;21030;-75
2022/10/01 07:59:54;;;;;;;8.90;3.67;;;;;;;;;;2327284;58;21054;-77
2022/10/01 08:02:21;;;;;;;9.63;4.18;;;;;;;;;;2325242;58;21121;-75
2022/10/01 08:07:34;;;;;;;7.70;3.65;;;;;;;;;;2326813;58;20966;-74
2022/10/01 08:10:03;;;;;;;7.12;3.60;;;;;;;;;;2327019;58;21108;-77
2022/10/01 08:12:30;;;;;;;4.45;3.05;;;;;;;;;;2568987;53;21062;-78
2022/10/01 08:14:57;;;;;;;5.03;3.12;;;;;;;;;;2568630;53;21038;-75
2022/10/01 08:17:24;;;;;;;7.07;3.65;;;;;;;;;;2569996;53;21545;-75
2022/10/01 08:19:51;;;;;;;4.22;3.20;;;;;;;;;;2569676;54;21118;-76
2022/10/01 08:22:18;;;;;;;6.57;3.35;;;;;;;;;;2326280;58;21536;-75
2022/10/01 08:24:45;;;;;;;5.70;3.50;;;;;;;;;;2327014;58;21109;-76
2022/10/01 08:27:12;;;;;;;3.47;3.05;;;;;;;;;;2326546;58;21050;-75
2022/10/01 08:29:42;;;;;;;5.65;3.62;;;;;;;;;;2326838;58;21699;-78
2022/10/01 08:32:09;;;;;;;5.85;3.45;;;;;;;;;;2326228;58;21065;-76
2022/10/01 08:34:36;;;;;;;4.30;3.30;;;;;;;;;;2326705;58;21592;-76
2022/10/01 08:37:03;;;;;;;4.62;3.65;;;;;;;;;;2326268;58;21050;-76
2022/10/01 08:39:30;;;;;;;5.80;3.53;;;;;;;;;;2325132;58;21058;-78
2022/10/01 08:41:59;;;;;;;5.53;3.50;;;;;;;;;;2325151;58;21053;-75
2022/10/01 08:44:28;;;;;;;6.03;3.15;;;;;;;;;;2326272;58;22212;-75
2022/10/01 08:46:59;;;;;;;7.40;3.45;;;;;;;;;;2326343;58;21096;-75
2022/10/01 08:49:28;;;;;;;5.03;3.00;;;;;;;;;;2326691;58;21149;-77
2022/10/01 08:51:57;;;;;;;3.22;2.85;;;;;;;;;;2325749;58;21655;-76
2022/10/01 08:54:30;;;;;;;5.45;3.10;;;;;;;;;;2567819;53;21572;-76
2022/10/01 08:56:59;;;;;;;6.50;3.72;;;;;;;;;;2326437;58;21062;-78
2022/10/01 08:59:33;;;;;;;4.43;2.80;;;;;;;;;;2326449;58;21549;-75
2022/10/01 09:02:00;;;;;;;5.00;3.10;;;;;;;;;;2326283;58;21046;-76
2022/10/01 09:04:27;;;;;;;4.95;2.78;;;;;;;;;;2326235;58;21608;-77
2022/10/01 09:07:00;;;;;;;3.40;2.45;;;;;;;;;;2326245;58;21054;-75
2022/10/01 09:12:12;;;;;;;3.83;2.30;;;;;;;;;;2355258;57;22560;-74
2022/10/01 09:14:47;;;;;;;3.22;2.30;;;;;;;;;;2362157;56;21134;-75
2022/10/01 09:17:19;;;;;;;2.95;2.37;;;;;;;;;;2374096;56;21672;-76
2022/10/01 09:19:53;;;;;;;2.45;2.22;;;;;;;;;;2373481;56;21554;-75
2022/10/01 09:22:25;;;;;;;5.03;2.22;;;;;;;;;;2374372;56;21173;-74
2022/10/01 09:24:57;;;;;;;2.47;2.28;;;;;;;;;;2374099;56;21137;-75
2022/10/01 09:27:26;;;;;;;3.12;2.20;;;;;;;;;;2374722;56;21094;-74
2022/10/01 09:29:56;;;;;;;2.28;1.80;;;;;;;;;;2374566;56;21071;-78
2022/10/01 09:32:24;;;;;;;1.92;1.75;;;;;;;;;;2373810;56;21605;-75
2022/10/01 09:34:51;;;;;;;3.08;2.00;;;;;;;;;;2372082;56;21126;-76
2022/10/01 09:37:23;;;;;;;2.37;2.10;;;;;;;;;;2374765;56;21066;-74
2022/10/01 09:39:56;;;;;;;4.25;2.17;;;;;;;;;;2374662;56;21106;-76
2022/10/01 09:44:59;;;;;;;2.97;2.40;;;;;;;;;;2356869;57;20352;-75
2022/10/01 09:47:26;;;;;;;3.17;2.33;;;;;;;;;;2347951;57;21061;-76
2022/10/01 09:49:54;;;;;;;4.05;2.62;;;;;;;;;;2595738;53;21774;-75
2022/10/01 09:52:25;;;;;;;4.43;3.20;;;;;;;;;;2346996;57;21049;-76
2022/10/01 09:54:56;;;;;;;3.60;2.22;;;;;;;;;;2595056;53;21446;-77
2022/10/01 09:57:26;;;;;;;2.70;2.35;;;;;;;;;;2347113;57;21057;-75
2022/10/01 09:59:57;;;;;;;2.25;2.00;;;;;;;;;;2347964;57;21072;-75
2022/10/01 10:02:25;;;;;;;3.12;2.45;;;;;;;;;;2595039;53;21507;-74
2022/10/01 10:04:59;;;;;;;2.70;2.50;;;;;;;;;;2348033;57;21190;-74
2022/10/01 10:07:28;;;;;;;5.72;2.70;;;;;;;;;;2348772;57;21101;-75
2022/10/01 10:09:55;;;;;;;2.53;2.33;;;;;;;;;;2595083;52;21050;-74
2022/10/01 10:12:28;;;;;;;3.42;3.12;;;;;;;;;;2348225;57;21046;-76
2022/10/01 10:14:57;;;;;;;3.80;3.40;;;;;;;;;;2348175;57;21149;-74
2022/10/01 10:17:24;;;;;;;3.65;2.70;;;;;;;;;;2348399;57;21120;-76
2022/10/01 10:19:52;;;;;;;6.22;3.25;;;;;;;;;;2348794;57;21049;-74
2022/10/01 10:22:23;;;;;;;6.95;4.57;;;;;;;;;;2348093;57;21065;-74
2022/10/01 10:24:51;;;;;;;4.10;3.70;;;;;;;;;;2348456;57;21057;-77
2022/10/01 10:27:25;;;;;;;5.50;4.35;;;;;;;;;;2348626;57;21042;-74
2022/10/01 10:30:00;;;;;;;5.32;3.95;;;;;;;;;;2596378;53;21142;-74
2022/10/01 10:32:28;;;;;;;7.65;4.93;;;;;;;;;;2348225;57;21183;-74
2022/10/01 10:34:56;;;;;;;6.32;4.70;;;;;;;;;;2347798;57;21615;-78
2022/10/01 10:37:27;;;;;;;7.28;4.72;;;;;;;;;;2348594;57;21062;-76
2022/10/01 10:39:54;;;;;;;10.02;6.12;;;;;;;;;;2348312;57;21057;-74
2022/10/01 10:42:23;;;;;;;8.70;5.18;;;;;;;;;;2347427;57;21060;-78
2022/10/01 10:44:52;;;;;;;5.70;4.40;;;;;;;;;;2348347;57;21124;-75
2022/10/01 10:47:20;;;;;;;6.97;4.72;;;;;;;;;;2348248;57;21033;-74
2022/10/01 10:49:48;;;;;;;8.18;4.87;;;;;;;;;;2348509;57;21049;-74
2022/10/01 10:52:19;;;;;;;8.10;4.70;;;;;;;;;;2347815;57;21095;-74
2022/10/01 10:54:49;;;;;;;5.97;5.35;;;;;;;;;;2347998;57;21112;-75
2022/10/01 10:57:20;;;;;;;9.80;4.75;;;;;;;;;;2347195;57;21116;-75
2022/10/01 10:59:55;;;;;;;8.68;5.95;;;;;;;;;;2347218;57;21045;-74
2022/10/01 11:02:24;;;;;;;6.37;4.00;;;;;;;;;;2594286;53;21648;-74
2022/10/01 11:04:52;;;;;;;4.75;3.78;;;;;;;;;;2347276;57;21137;-77
2022/10/01 11:07:20;;;;;;;7.05;4.95;;;;;;;;;;2594068;52;21057;-76
2022/10/01 11:10:03;;;;;;;7.87;5.05;;;;;;;;;;2347174;57;21053;-77
2022/10/01 11:12:35;;;;;;;7.57;4.65;;;;;;;;;;2347073;57;21619;-75
2022/10/01 11:15:09;;;;;;;7.18;5.35;;;;;;;;;;2347573;57;21057;-74
2022/10/01 11:17:45;;;;;;;7.30;5.65;;;;;;;;;;2594638;53;21101;-74
2022/10/01 11:20:21;;;;;;;4.82;4.07;;;;;;;;;;2347159;57;21054;-76
2022/10/01 11:22:56;;;;;;;9.45;5.00;;;;;;;;;;2346943;57;21093;-75
2022/10/01 11:25:29;;;;;;;6.60;4.50;;;;;;;;;;2346421;57;21057;-77
2022/10/01 11:28:05;;;;;;;5.22;4.72;;;;;;;;;;2347038;57;21053;-76
2022/10/01 11:30:36;;;;;;;6.40;4.53;;;;;;;;;;2347012;57;21168;-78
2022/10/01 11:33:09;;;;;;;7.55;4.60;;;;;;;;;;2346941;57;21033;-76
2022/10/01 11:35:38;;;;;;;;;;;;;;;;;;2350929;57;21096;-74
2022/10/01 11:38:16;;;;;;;4.78;3.92;;;;;;;;;;2346945;57;20154;-75
2022/10/01 11:40:46;;;;;;;6.03;4.05;;;;;;;;;;2346306;57;21607;-75
2022/10/01 11:43:16;;;;;;;9.15;3.95;;;;;;;;;;2347491;57;21068;-76
2022/10/01 11:45:46;;;;;;;5.62;3.60;;;;;;;;;;2347673;57;21050;-78
2022/10/01 11:48:15;;;;;;;10.02;4.75;;;;;;;;;;2347295;57;21037;-77
2022/10/01 11:50:43;;;;;;;8.95;3.85;;;;;;;;;;2346653;57;21061;-79
2022/10/01 11:53:12;;;;;;;11.85;4.55;;;;;;;;;;2594953;53;21084;-77
2022/10/01 12:01:18;;;;;;;7.22;3.65;;;;;;;;;;2346684;57;21029;-75
2022/10/01 12:03:58;;;;;;;9.55;3.53;;;;;;;;;;2347330;57;21558;-75
2022/10/01 12:06:27;;;;;;;8.77;3.10;;;;;;;;;;2594774;52;21053;-74
2022/10/01 12:08:58;;;;;;;6.10;2.95;;;;;;;;;;2347542;57;21042;-78
2022/10/01 12:11:28;;;;;;;5.22;2.90;;;;;;;;;;2346859;57;21647;-77
2022/10/01 12:13:59;;;;;;;10.27;3.10;;;;;;;;;;2594812;53;21610;-74
2022/10/01 12:16:30;;;;;;;11.88;3.28;;;;;;;;;;2347526;57;21631;-75
2022/10/01 12:19:00;;;;;;;8.13;2.95;;;;;;;;;;2347772;57;21065;-75
2022/10/01 12:21:29;;;;;;;7.47;2.70;;;;;;;;;;2346623;57;21644;-77
2022/10/01 12:24:00;;;;;;;7.72;2.22;;;;;;;;;;2516005;52;21045;-76
2022/10/01 12:26:33;;;;;;;7.03;2.20;;;;;;;;;;2387200;56;21572;-77
2022/10/01 12:29:03;;;;;;;14.25;2.72;;;;;;;;;;2643336;52;21061;-78
2022/10/01 12:31:35;;;;;;;5.25;2.00;;;;;;;;;;2386351;56;21116;-77
2022/10/01 12:34:09;;;;;;;5.15;2.42;;;;;;;;;;2643222;52;21025;-79
2022/10/01 12:36:41;;;;;;;7.78;2.12;;;;;;;;;;2386619;56;21033;-79
2022/10/01 12:39:17;;;;;;;8.98;2.30;;;;;;;;;;2387091;56;21025;-76
2022/10/01 12:41:49;;;;;;;6.30;2.28;;;;;;;;;;2386384;56;21025;-76
2022/10/01 12:44:31;;;;;;;7.97;2.17;;;;;;;;;;2386670;56;21080;-77
2022/10/01 12:47:07;;;;;;;6.78;1.73;;;;;;;;;;2642895;51;21020;-78
2022/10/01 12:49:38;;;;;;;7.80;2.42;;;;;;;;;;2643108;52;21511;-77
2022/10/01 12:52:12;;;;;;;6.18;2.00;;;;;;;;;;2642861;52;21128;-77
2022/10/01 12:54:56;;;;;;;7.85;2.62;;;;;;;;;;2386277;56;21096;-78
2022/10/01 12:57:32;;;;;;;4.47;1.83;;;;;;;;;;2387102;56;21029;-77
2022/10/01 13:00:06;;;;;;;5.20;1.55;;;;;;;;;;2386426;56;21029;-76
2022/10/01 13:02:53;;;;;;;6.25;2.00;;;;;;;;;;2386901;56;21021;-77
2022/10/01 13:05:25;;;;;;;6.80;2.20;;;;;;;;;;2386563;56;21029;-78
2022/10/01 13:07:57;;;;;;;6.50;1.77;;;;;;;;;;2386868;56;21014;-77
2022/10/01 13:10:29;;;;;;;15.03;2.13;;;;;;;;;;2643234;52;21040;-79
2022/10/01 13:13:00;;;;;;;9.02;2.70;;;;;;;;;;2385956;56;21037;-77
2022/10/01 13:15:29;;;;;;;6.55;2.22;;;;;;;;;;2386713;56;21041;-79
2022/10/01 13:17:59;;;;;;;8.60;3.35;;;;;;;;;;2643195;52;21496;-76
2022/10/01 13:20:30;;;;;;;5.95;1.92;;;;;;;;;;2386549;56;21097;-80
2022/10/01 13:23:01;;;;;;;6.97;2.03;;;;;;;;;;2642163;52;21077;-77
2022/10/01 13:25:32;;;;;;;5.72;1.75;;;;;;;;;;2386020;56;21044;-77
2022/10/01 13:28:03;;;;;;;7.53;1.70;;;;;;;;;;2642840;52;21093;-77
2022/10/01 13:30:33;;;;;;;5.80;1.40;;;;;;;;;;2386923;56;21746;-79
2022/10/01 13:33:00;;;;;;;8.07;1.73;;;;;;;;;;2643078;52;21504;-77
2022/10/01 13:35:29;;;;;;;5.47;1.83;;;;;;;;;;2386388;56;21072;-76
2022/10/01 13:37:56;;;;;;;9.35;2.03;;;;;;;;;;2386767;56;21061;-78
2022/10/01 13:40:25;;;;;;;3.92;1.55;;;;;;;;;;2642952;52;21097;-77
2022/10/01 13:42:53;;;;;;;2.92;1.40;;;;;;;;;;2386550;56;21639;-77
2022/10/01 13:45:23;;;;;;;2.70;1.23;;;;;;;;;;2385893;56;21107;-77
2022/10/01 13:47:50;;;;;;;3.85;1.48;;;;;;;;;;2386889;56;21080;-78
2022/10/01 13:50:22;;;;;;;5.25;1.80;;;;;;;;;;2386670;56;21073;-78
2022/10/01 13:52:50;;;;;;;2.72;1.02;;;;;;;;;;2386553;56;21065;-76
2022/10/01 13:55:24;;;;;;;5.82;1.30;;;;;;;;;;2386333;56;21021;-75
2022/10/01 13:58:01;;;;;;;2.78;1.20;;;;;;;;;;2386741;56;21045;-78
2022/10/01 14:00:28;;;;;;;11.70;1.40;;;;;;;;;;2386627;56;21104;-77
2022/10/01 14:03:00;;;;;;;4.25;1.52;;;;;;;;;;2386164;56;21133;-75
2022/10/01 14:05:31;;;;;;;2.92;1.20;;;;;;;;;;2386251;56;21109;-75
2022/10/01 14:08:09;;;;;;;4.55;1.50;;;;;;;;;;2387102;56;21100;-77
2022/10/01 14:15:57;;;;;;;4.18;1.48;;;;;;;;;;2386600;56;21109;-76
2022/10/01 14:18:41;;;;;;;5.80;1.85;;;;;;;;;;2386625;56;21037;-75
2022/10/01 14:21:17;;;;;;;4.32;1.12;;;;;;;;;;2386311;56;21096;-76
2022/10/01 14:23:49;;;;;;;2.95;1.30;;;;;;;;;;2386770;56;21017;-75
2022/10/01 14:26:19;;;;;;;3.15;1.30;;;;;;;;;;2386857;56;21093;-75
2022/10/01 14:28:53;;;;;;;2.83;1.45;;;;;;;;;;2386665;56;21124;-75
2022/10/01 14:31:26;;;;;;;4.25;1.73;;;;;;;;;;2385998;56;21037;-75
2022/10/01 14:33:59;;;;;;;7.68;1.90;;;;;;;;;;2386665;56;21084;-75
2022/10/01 14:36:31;;;;;;;2.80;1.35;;;;;;;;;;2387163;56;21041;-75
2022/10/01 14:39:05;;;;;;;3.35;1.42;;;;;;;;;;2386768;56;21394;-75
2022/10/01 14:41:33;;;;;;;4.72;2.12;;;;;;;;;;2386689;56;21033;-76
2022/10/01 14:44:01;;;;;;;5.95;1.27;;;;;;;;;;2387048;56;21111;-76
2022/10/01 14:46:28;;;;;;;6.68;1.33;;;;;;;;;;2386723;56;21021;-76
2022/10/01 14:48:59;;;;;;;6.10;1.40;;;;;;;;;;2386257;56;21104;-76
2022/10/01 14:51:27;;;;;;;4.47;1.30;;;;;;;;;;2386487;56;21104;-76
2022/10/01 14:53:56;;;;;;;4.93;1.92;;;;;;;;;;2386798;56;21045;-75
2022/10/01 14:56:23;;;;;;;2.50;0.90;;;;;;;;;;2384214;56;21041;-76
2022/10/01 14:58:54;;;;;;;7.90;1.40;;;;;;;;;;2386610;56;21081;-75
2022/10/01 15:01:22;;;;;;;7.55;1.83;;;;;;;;;;2386215;56;21053;-76
2022/10/01 15:03:50;;;;;;;3.45;1.33;;;;;;;;;;2386357;56;21065;-76
2022/10/01 15:06:18;;;;;;;4.25;1.50;;;;;;;;;;2386610;56;21033;-75
2022/10/01 15:08:46;;;;;;;8.38;1.60;;;;;;;;;;2386836;56;21516;-75
2022/10/01 15:11:16;;;;;;;6.53;1.70;;;;;;;;;;2386635;56;21052;-75
2022/10/01 15:13:44;;;;;;;3.08;1.50;;;;;;;;;;2642444;52;21088;-76
2022/10/01 15:16:12;;;;;;;5.43;1.35;;;;;;;;;;2387066;56;21081;-76
2022/10/01 15:18:41;;;;;;;3.95;1.98;;;;;;;;;;2386649;56;21531;-76